sensor_id;sensor_type;location;lat;lon;timestamp;temperature;humidity
28253;DHT22;15515;45.588;5.276;2022-10-31T00:01:15;17.80;99.90
28253;DHT22;15515;45.588;5.276;2022-10-31T00:03:42;17.90;99.90
28253;DHT22;15515;45.588;5.276;2022-10-31T00:06:10;17.70;99.90
28253;DHT22;15515;45.588;5.276;2022-10-31T00:08:37;17.80;99.90
28253;DHT22;15515;45.588;5.276;2022-10-31T00:11:07;17.70;99.90
28253;DHT22;15515;45.588;5.276;2022-10-31T00:13:34;17.80;99.90
28253;DHT22;15515;45.588;5.276;2022-10-31T00:16:01;17.80;99.90
28253;DHT22;15515;45.588;5.276;2022-10-31T00:18:28;17.80;99.90
28253;DHT22;15515;45.588;5.276;2022-10-31T00:21:03;17.90;99.90
28253;DHT22;15515;45.588;5.276;2022-10-31T00:23:30;17.90;99.90
28253;DHT22;15515;45.588;5.276;2022-10-31T00:26:02;17.90;99.90
28253;DHT22;15515;45.588;5.276;2022-10-31T00:28:29;18.00;99.90
28253;DHT22;15515;45.588;5.276;2022-10-31T00:31:04;18.00;99.90
28253;DHT22;15515;45.588;5.276;2022-10-31T00:33:34;18.00;99.90
28253;DHT22;15515;45.588;5.276;2022-10-31T00:36:02;18.00;99.90
28253;DHT22;15515;45.588;5.276;2022-10-31T00:38:29;18.00;99.90
28253;DHT22;15515;45.588;5.276;2022-10-31T00:40:56;18.00;99.90
28253;DHT22;15515;45.588;5.276;2022-10-31T00:43:23;18.10;99.90
28253;DHT22;15515;45.588;5.276;2022-10-31T00:45:50;18.00;99.90
28253;DHT22;15515;45.588;5.276;2022-10-31T00:48:17;18.10;99.90
28253;DHT22;15515;45.588;5.276;2022-10-31T00:50:44;18.00;99.90
28253;DHT22;15515;45.588;5.276;2022-10-31T00:53:11;18.10;99.90
28253;DHT22;15515;45.588;5.276;2022-10-31T00:55:38;18.10;99.90
28253;DHT22;15515;45.588;5.276;2022-10-31T00:58:06;18.10;99.90
28253;DHT22;15515;45.588;5.276;2022-10-31T01:00:33;18.00;99.90
28253;DHT22;15515;45.588;5.276;2022-10-31T01:03:00;18.00;99.90
28253;DHT22;15515;45.588;5.276;2022-10-31T01:05:27;18.00;99.90
28253;DHT22;15515;45.588;5.276;2022-10-31T01:07:54;18.10;99.90
28253;DHT22;15515;45.588;5.276;2022-10-31T01:10:22;18.10;99.90
28253;DHT22;15515;45.588;5.276;2022-10-31T01:12:51;18.20;99.90
28253;DHT22;15515;45.588;5.276;2022-10-31T01:15:22;18.20;99.90
28253;DHT22;15515;45.588;5.276;2022-10-31T01:17:49;18.30;99.90
28253;DHT22;15515;45.588;5.276;2022-10-31T01:20:17;18.30;99.90
28253;DHT22;15515;45.588;5.276;2022-10-31T01:22:44;18.30;99.90
28253;DHT22;15515;45.588;5.276;2022-10-31T01:25:11;18.40;99.90
28253;DHT22;15515;45.588;5.276;2022-10-31T01:27:39;18.40;99.90
28253;DHT22;15515;45.588;5.276;2022-10-31T01:30:07;18.40;99.90
28253;DHT22;15515;45.588;5.276;2022-10-31T01:32:34;18.40;99.90
28253;DHT22;15515;45.588;5.276;2022-10-31T01:35:01;18.30;99.90
28253;DHT22;15515;45.588;5.276;2022-10-31T01:37:28;18.30;99.90
28253;DHT22;15515;45.588;5.276;2022-10-31T01:39:56;18.40;99.90
28253;DHT22;15515;45.588;5.276;2022-10-31T01:42:23;18.30;99.90
28253;DHT22;15515;45.588;5.276;2022-10-31T01:44:59;18.30;99.90
28253;DHT22;15515;45.588;5.276;2022-10-31T01:48:06;18.30;99.90
28253;DHT22;15515;45.588;5.276;2022-10-31T01:50:27;18.30;99.90
28253;DHT22;15515;45.588;5.276;2022-10-31T01:52:55;18.30;99.90
28253;DHT22;15515;45.588;5.276;2022-10-31T01:55:32;18.30;99.90
28253;DHT22;15515;45.588;5.276;2022-10-31T01:58:19;18.20;99.90
28253;DHT22;15515;45.588;5.276;2022-10-31T02:00:51;18.20;99.90
28253;DHT22;15515;45.588;5.276;2022-10-31T02:03:19;18.30;99.90
28253;DHT22;15515;45.588;5.276;2022-10-31T02:05:47;18.30;99.90
28253;DHT22;15515;45.588;5.276;2022-10-31T02:08:25;18.30;99.90
28253;DHT22;15515;45.588;5.276;2022-10-31T02:10:53;18.30;99.90
28253;DHT22;15515;45.588;5.276;2022-10-31T02:13:23;18.30;99.90
28253;DHT22;15515;45.588;5.276;2022-10-31T02:15:56;18.20;99.90
28253;DHT22;15515;45.588;5.276;2022-10-31T02:18:26;18.30;99.90
28253;DHT22;15515;45.588;5.276;2022-10-31T02:21:15;18.30;99.90
28253;DHT22;15515;45.588;5.276;2022-10-31T02:30:03;18.30;99.90
28253;DHT22;15515;45.588;5.276;2022-10-31T02:35:28;18.20;99.90
28253;DHT22;15515;45.588;5.276;2022-10-31T02:38:25;18.20;99.90
28253;DHT22;15515;45.588;5.276;2022-10-31T02:44:27;18.30;99.90
28253;DHT22;15515;45.588;5.276;2022-10-31T02:46:59;18.20;99.90
28253;DHT22;15515;45.588;5.276;2022-10-31T02:51:55;18.00;99.90
28253;DHT22;15515;45.588;5.276;2022-10-31T02:54:27;18.00;99.90
28253;DHT22;15515;45.588;5.276;2022-10-31T02:57:01;17.90;99.90
28253;DHT22;15515;45.588;5.276;2022-10-31T02:59:31;17.90;99.90
28253;DHT22;15515;45.588;5.276;2022-10-31T03:02:24;17.90;99.90
28253;DHT22;15515;45.588;5.276;2022-10-31T03:08:01;17.60;99.90
28253;DHT22;15515;45.588;5.276;2022-10-31T03:10:47;17.70;99.90
28253;DHT22;15515;45.588;5.276;2022-10-31T03:13:41;17.70;99.90
28253;DHT22;15515;45.588;5.276;2022-10-31T03:16:47;17.70;99.90
28253;DHT22;15515;45.588;5.276;2022-10-31T03:19:40;17.80;99.90
28253;DHT22;15515;45.588;5.276;2022-10-31T03:24:47;17.90;99.90
28253;DHT22;15515;45.588;5.276;2022-10-31T03:27:21;17.90;99.90
28253;DHT22;15515;45.588;5.276;2022-10-31T03:29:54;18.00;99.90
28253;DHT22;15515;45.588;5.276;2022-10-31T03:32:30;17.90;99.90
28253;DHT22;15515;45.588;5.276;2022-10-31T03:35:01;18.00;99.90
28253;DHT22;15515;45.588;5.276;2022-10-31T03:37:32;18.00;99.90
28253;DHT22;15515;45.588;5.276;2022-10-31T03:40:00;17.90;99.90
28253;DHT22;15515;45.588;5.276;2022-10-31T03:42:33;17.90;99.90
28253;DHT22;15515;45.588;5.276;2022-10-31T03:45:10;17.80;99.90
28253;DHT22;15515;45.588;5.276;2022-10-31T03:47:40;17.80;99.90
28253;DHT22;15515;45.588;5.276;2022-10-31T03:50:11;17.70;99.90
28253;DHT22;15515;45.588;5.276;2022-10-31T03:52:47;17.80;99.90
28253;DHT22;15515;45.588;5.276;2022-10-31T03:55:59;17.80;99.90
28253;DHT22;15515;45.588;5.276;2022-10-31T03:58:09;17.80;99.90
28253;DHT22;15515;45.588;5.276;2022-10-31T04:00:44;17.80;99.90
28253;DHT22;15515;45.588;5.276;2022-10-31T04:03:32;17.80;99.90
28253;DHT22;15515;45.588;5.276;2022-10-31T04:06:08;17.70;99.90
28253;DHT22;15515;45.588;5.276;2022-10-31T04:08:42;17.70;99.90
28253;DHT22;15515;45.588;5.276;2022-10-31T04:11:15;17.70;99.90
28253;DHT22;15515;45.588;5.276;2022-10-31T04:13:48;17.70;99.90
28253;DHT22;15515;45.588;5.276;2022-10-31T04:16:21;17.80;99.90
28253;DHT22;15515;45.588;5.276;2022-10-31T04:18:50;17.80;99.90
28253;DHT22;15515;45.588;5.276;2022-10-31T04:21:17;17.70;99.90
28253;DHT22;15515;45.588;5.276;2022-10-31T04:23:45;17.70;99.90
28253;DHT22;15515;45.588;5.276;2022-10-31T04:26:20;17.70;99.90
28253;DHT22;15515;45.588;5.276;2022-10-31T04:28:47;17.70;99.90
28253;DHT22;15515;45.588;5.276;2022-10-31T04:31:14;17.70;99.90
28253;DHT22;15515;45.588;5.276;2022-10-31T04:33:44;17.80;99.90
28253;DHT22;15515;45.588;5.276;2022-10-31T04:36:11;17.80;99.90
28253;DHT22;15515;45.588;5.276;2022-10-31T04:38:38;17.80;99.90
28253;DHT22;15515;45.588;5.276;2022-10-31T04:41:14;17.70;99.90
28253;DHT22;15515;45.588;5.276;2022-10-31T04:43:50;17.70;99.90
28253;DHT22;15515;45.588;5.276;2022-10-31T04:46:18;17.70;99.90
28253;DHT22;15515;45.588;5.276;2022-10-31T04:48:46;17.70;99.90
28253;DHT22;15515;45.588;5.276;2022-10-31T04:51:13;17.80;99.90
28253;DHT22;15515;45.588;5.276;2022-10-31T04:53:40;17.80;99.90
28253;DHT22;15515;45.588;5.276;2022-10-31T04:56:33;17.70;99.90
28253;DHT22;15515;45.588;5.276;2022-10-31T04:59:08;17.80;99.90
28253;DHT22;15515;45.588;5.276;2022-10-31T05:01:46;17.70;99.90
28253;DHT22;15515;45.588;5.276;2022-10-31T05:04:13;17.70;99.90
28253;DHT22;15515;45.588;5.276;2022-10-31T05:06:41;17.70;99.90
28253;DHT22;15515;45.588;5.276;2022-10-31T05:09:08;17.70;99.90
28253;DHT22;15515;45.588;5.276;2022-10-31T05:11:35;17.70;99.90
28253;DHT22;15515;45.588;5.276;2022-10-31T05:14:17;17.70;99.90
28253;DHT22;15515;45.588;5.276;2022-10-31T05:17:14;17.70;99.90
28253;DHT22;15515;45.588;5.276;2022-10-31T05:20:14;17.70;99.90
28253;DHT22;15515;45.588;5.276;2022-10-31T05:23:02;17.60;99.90
28253;DHT22;15515;45.588;5.276;2022-10-31T05:25:29;17.60;99.90
28253;DHT22;15515;45.588;5.276;2022-10-31T05:27:57;17.60;99.90
28253;DHT22;15515;45.588;5.276;2022-10-31T05:30:27;17.60;99.90
28253;DHT22;15515;45.588;5.276;2022-10-31T05:32:54;17.60;99.90
28253;DHT22;15515;45.588;5.276;2022-10-31T05:36:00;17.50;99.90
28253;DHT22;15515;45.588;5.276;2022-10-31T05:38:53;17.50;99.90
28253;DHT22;15515;45.588;5.276;2022-10-31T05:41:24;17.60;99.90
28253;DHT22;15515;45.588;5.276;2022-10-31T05:43:54;17.60;99.90
28253;DHT22;15515;45.588;5.276;2022-10-31T05:46:26;17.60;99.90
28253;DHT22;15515;45.588;5.276;2022-10-31T05:49:12;17.60;99.90
28253;DHT22;15515;45.588;5.276;2022-10-31T05:51:57;17.60;99.90
28253;DHT22;15515;45.588;5.276;2022-10-31T05:54:33;17.60;99.90
28253;DHT22;15515;45.588;5.276;2022-10-31T05:57:00;17.50;99.90
28253;DHT22;15515;45.588;5.276;2022-10-31T05:59:27;17.60;99.90
28253;DHT22;15515;45.588;5.276;2022-10-31T06:01:55;17.50;99.90
28253;DHT22;15515;45.588;5.276;2022-10-31T06:04:44;17.60;99.90
28253;DHT22;15515;45.588;5.276;2022-10-31T06:07:12;17.60;99.90
28253;DHT22;15515;45.588;5.276;2022-10-31T06:09:39;17.60;99.90
28253;DHT22;15515;45.588;5.276;2022-10-31T06:12:06;17.50;99.90
28253;DHT22;15515;45.588;5.276;2022-10-31T06:14:53;17.40;99.90
28253;DHT22;15515;45.588;5.276;2022-10-31T06:17:20;17.30;99.90
28253;DHT22;15515;45.588;5.276;2022-10-31T06:19:47;17.30;99.90
28253;DHT22;15515;45.588;5.276;2022-10-31T06:22:23;17.20;99.90
28253;DHT22;15515;45.588;5.276;2022-10-31T06:24:50;17.20;99.90
28253;DHT22;15515;45.588;5.276;2022-10-31T06:27:34;17.20;99.90
28253;DHT22;15515;45.588;5.276;2022-10-31T06:30:10;17.20;99.90
28253;DHT22;15515;45.588;5.276;2022-10-31T06:32:37;17.20;99.90
28253;DHT22;15515;45.588;5.276;2022-10-31T06:35:04;17.20;99.90
28253;DHT22;15515;45.588;5.276;2022-10-31T06:37:33;17.20;99.90
28253;DHT22;15515;45.588;5.276;2022-10-31T06:40:12;17.10;99.90
28253;DHT22;15515;45.588;5.276;2022-10-31T06:43:00;17.10;99.90
28253;DHT22;15515;45.588;5.276;2022-10-31T06:45:29;17.10;99.90
28253;DHT22;15515;45.588;5.276;2022-10-31T06:48:19;17.10;99.90
28253;DHT22;15515;45.588;5.276;2022-10-31T06:51:22;17.20;99.90
28253;DHT22;15515;45.588;5.276;2022-10-31T06:53:50;17.20;99.90
28253;DHT22;15515;45.588;5.276;2022-10-31T06:56:18;17.20;99.90
28253;DHT22;15515;45.588;5.276;2022-10-31T06:58:50;17.20;99.90
28253;DHT22;15515;45.588;5.276;2022-10-31T07:01:27;17.20;99.90
28253;DHT22;15515;45.588;5.276;2022-10-31T07:03:54;17.30;99.90
28253;DHT22;15515;45.588;5.276;2022-10-31T07:06:21;17.30;99.90
28253;DHT22;15515;45.588;5.276;2022-10-31T07:08:48;17.30;99.90
28253;DHT22;15515;45.588;5.276;2022-10-31T07:11:15;17.40;99.90
28253;DHT22;15515;45.588;5.276;2022-10-31T07:13:42;17.40;99.90
28253;DHT22;15515;45.588;5.276;2022-10-31T07:16:09;17.50;99.90
28253;DHT22;15515;45.588;5.276;2022-10-31T07:18:42;17.50;99.90
28253;DHT22;15515;45.588;5.276;2022-10-31T07:21:11;17.50;99.90
28253;DHT22;15515;45.588;5.276;2022-10-31T07:23:39;17.60;99.90
28253;DHT22;15515;45.588;5.276;2022-10-31T07:26:31;17.60;99.90
28253;DHT22;15515;45.588;5.276;2022-10-31T07:28:58;17.70;99.90
28253;DHT22;15515;45.588;5.276;2022-10-31T07:31:27;17.70;99.90
28253;DHT22;15515;45.588;5.276;2022-10-31T07:33:59;17.70;99.90
28253;DHT22;15515;45.588;5.276;2022-10-31T07:36:26;17.80;99.90
28253;DHT22;15515;45.588;5.276;2022-10-31T07:38:57;17.90;99.90
28253;DHT22;15515;45.588;5.276;2022-10-31T07:41:25;18.00;99.90
28253;DHT22;15515;45.588;5.276;2022-10-31T07:43:53;18.00;99.90
28253;DHT22;15515;45.588;5.276;2022-10-31T07:46:29;18.10;99.90
28253;DHT22;15515;45.588;5.276;2022-10-31T07:49:15;18.10;99.90
28253;DHT22;15515;45.588;5.276;2022-10-31T07:52:00;18.20;99.90
28253;DHT22;15515;45.588;5.276;2022-10-31T07:54:46;18.40;99.90
28253;DHT22;15515;45.588;5.276;2022-10-31T07:57:21;18.60;99.90
28253;DHT22;15515;45.588;5.276;2022-10-31T07:59:50;18.70;99.90
28253;DHT22;15515;45.588;5.276;2022-10-31T08:02:18;18.60;99.90
28253;DHT22;15515;45.588;5.276;2022-10-31T08:04:48;18.60;99.90
28253;DHT22;15515;45.588;5.276;2022-10-31T08:07:36;18.60;99.90
28253;DHT22;15515;45.588;5.276;2022-10-31T08:10:06;18.60;99.90
28253;DHT22;15515;45.588;5.276;2022-10-31T08:12:34;18.60;99.90
28253;DHT22;15515;45.588;5.276;2022-10-31T08:15:03;18.70;99.90
28253;DHT22;15515;45.588;5.276;2022-10-31T08:17:30;18.70;99.90
28253;DHT22;15515;45.588;5.276;2022-10-31T08:20:01;18.60;99.90
28253;DHT22;15515;45.588;5.276;2022-10-31T08:22:33;18.60;99.90
28253;DHT22;15515;45.588;5.276;2022-10-31T08:25:01;18.70;99.90
28253;DHT22;15515;45.588;5.276;2022-10-31T08:27:28;18.70;99.90
28253;DHT22;15515;45.588;5.276;2022-10-31T08:29:58;18.70;99.90
28253;DHT22;15515;45.588;5.276;2022-10-31T08:32:25;18.70;99.90
28253;DHT22;15515;45.588;5.276;2022-10-31T08:35:15;18.70;99.90
28253;DHT22;15515;45.588;5.276;2022-10-31T08:38:14;18.70;99.90
28253;DHT22;15515;45.588;5.276;2022-10-31T08:40:42;18.70;99.90
28253;DHT22;15515;45.588;5.276;2022-10-31T08:43:12;18.70;99.90
28253;DHT22;15515;45.588;5.276;2022-10-31T08:45:40;18.80;99.90
28253;DHT22;15515;45.588;5.276;2022-10-31T08:48:16;18.80;99.90
28253;DHT22;15515;45.588;5.276;2022-10-31T08:50:44;19.00;99.90
28253;DHT22;15515;45.588;5.276;2022-10-31T08:53:13;19.20;99.90
28253;DHT22;15515;45.588;5.276;2022-10-31T08:55:43;19.40;99.90
28253;DHT22;15515;45.588;5.276;2022-10-31T08:58:29;19.40;99.90
28253;DHT22;15515;45.588;5.276;2022-10-31T09:01:00;19.40;99.90
28253;DHT22;15515;45.588;5.276;2022-10-31T09:03:29;19.50;99.90
28253;DHT22;15515;45.588;5.276;2022-10-31T09:06:01;19.60;99.90
28253;DHT22;15515;45.588;5.276;2022-10-31T09:08:30;19.90;99.90
28253;DHT22;15515;45.588;5.276;2022-10-31T09:10:57;20.20;99.90
28253;DHT22;15515;45.588;5.276;2022-10-31T09:13:47;20.50;99.90
28253;DHT22;15515;45.588;5.276;2022-10-31T09:16:51;20.50;99.90
28253;DHT22;15515;45.588;5.276;2022-10-31T09:19:22;20.40;99.90
28253;DHT22;15515;45.588;5.276;2022-10-31T09:21:53;20.40;99.90
28253;DHT22;15515;45.588;5.276;2022-10-31T09:24:21;20.50;99.90
28253;DHT22;15515;45.588;5.276;2022-10-31T09:26:48;20.50;99.90
28253;DHT22;15515;45.588;5.276;2022-10-31T09:29:25;20.50;99.90
28253;DHT22;15515;45.588;5.276;2022-10-31T09:31:57;20.80;99.90
28253;DHT22;15515;45.588;5.276;2022-10-31T09:34:26;20.80;99.90
28253;DHT22;15515;45.588;5.276;2022-10-31T09:37:14;20.90;99.90
28253;DHT22;15515;45.588;5.276;2022-10-31T09:39:41;21.20;99.20
28253;DHT22;15515;45.588;5.276;2022-10-31T09:48:25;21.30;98.40
28253;DHT22;15515;45.588;5.276;2022-10-31T09:51:20;21.50;98.10
28253;DHT22;15515;45.588;5.276;2022-10-31T09:57:22;21.70;96.80
28253;DHT22;15515;45.588;5.276;2022-10-31T09:59:51;22.10;96.50
28253;DHT22;15515;45.588;5.276;2022-10-31T10:05:11;22.40;95.00
28253;DHT22;15515;45.588;5.276;2022-10-31T10:11:04;22.40;94.00
28253;DHT22;15515;45.588;5.276;2022-10-31T10:14:04;22.50;94.70
28253;DHT22;15515;45.588;5.276;2022-10-31T10:22:43;22.70;94.10
28253;DHT22;15515;45.588;5.276;2022-10-31T10:25:21;22.90;93.50
28253;DHT22;15515;45.588;5.276;2022-10-31T10:30:46;23.30;92.60
28253;DHT22;15515;45.588;5.276;2022-10-31T10:33:24;23.50;91.60
28253;DHT22;15515;45.588;5.276;2022-10-31T10:36:00;23.80;91.20
28253;DHT22;15515;45.588;5.276;2022-10-31T10:41:24;23.50;90.90
28253;DHT22;15515;45.588;5.276;2022-10-31T10:43:56;23.40;91.00
28253;DHT22;15515;45.588;5.276;2022-10-31T10:46:43;23.10;91.10
28253;DHT22;15515;45.588;5.276;2022-10-31T10:55:26;22.70;91.70
28253;DHT22;15515;45.588;5.276;2022-10-31T10:57:58;23.00;91.70
28253;DHT22;15515;45.588;5.276;2022-10-31T11:00:40;23.10;91.10
28253;DHT22;15515;45.588;5.276;2022-10-31T11:03:08;23.10;91.10
28253;DHT22;15515;45.588;5.276;2022-10-31T11:05:53;23.50;90.70
28253;DHT22;15515;45.588;5.276;2022-10-31T11:08:28;23.70;90.20
28253;DHT22;15515;45.588;5.276;2022-10-31T11:13:35;24.00;88.20
28253;DHT22;15515;45.588;5.276;2022-10-31T11:16:10;24.20;85.80
28253;DHT22;15515;45.588;5.276;2022-10-31T11:18:43;24.10;86.20
28253;DHT22;15515;45.588;5.276;2022-10-31T11:21:25;24.00;85.50
28253;DHT22;15515;45.588;5.276;2022-10-31T11:26:30;23.90;87.40
28253;DHT22;15515;45.588;5.276;2022-10-31T11:28:58;24.00;87.60
28253;DHT22;15515;45.588;5.276;2022-10-31T11:31:26;24.40;86.70
28253;DHT22;15515;45.588;5.276;2022-10-31T11:34:15;24.90;84.70
28253;DHT22;15515;45.588;5.276;2022-10-31T11:36:43;24.90;83.50
28253;DHT22;15515;45.588;5.276;2022-10-31T11:39:21;25.10;82.70
28253;DHT22;15515;45.588;5.276;2022-10-31T11:41:49;24.80;82.60
28253;DHT22;15515;45.588;5.276;2022-10-31T11:44:22;25.10;83.20
28253;DHT22;15515;45.588;5.276;2022-10-31T11:46:52;25.20;81.50
28253;DHT22;15515;45.588;5.276;2022-10-31T11:49:38;25.00;82.90
28253;DHT22;15515;45.588;5.276;2022-10-31T11:59:54;24.10;85.10
28253;DHT22;15515;45.588;5.276;2022-10-31T12:02:22;23.60;85.50
28253;DHT22;15515;45.588;5.276;2022-10-31T12:07:24;24.00;85.70
28253;DHT22;15515;45.588;5.276;2022-10-31T12:09:51;24.30;83.60
28253;DHT22;15515;45.588;5.276;2022-10-31T12:26:47;24.10;84.50
28253;DHT22;15515;45.588;5.276;2022-10-31T12:43:08;25.10;80.50
28253;DHT22;15515;45.588;5.276;2022-10-31T12:45:58;25.10;80.00
28253;DHT22;15515;45.588;5.276;2022-10-31T13:00:12;24.60;80.60
28253;DHT22;15515;45.588;5.276;2022-10-31T13:03:21;24.80;81.30
28253;DHT22;15515;45.588;5.276;2022-10-31T13:05:45;24.60;81.00
28253;DHT22;15515;45.588;5.276;2022-10-31T13:08:17;24.40;81.60
28253;DHT22;15515;45.588;5.276;2022-10-31T13:10:48;24.60;81.60
28253;DHT22;15515;45.588;5.276;2022-10-31T13:13:52;24.80;79.60
28253;DHT22;15515;45.588;5.276;2022-10-31T13:16:39;24.70;78.30
28253;DHT22;15515;45.588;5.276;2022-10-31T13:19:19;24.70;79.30
28253;DHT22;15515;45.588;5.276;2022-10-31T13:24:26;25.20;77.90
28253;DHT22;15515;45.588;5.276;2022-10-31T13:26:56;25.50;76.40
28253;DHT22;15515;45.588;5.276;2022-10-31T13:29:32;25.50;76.20
28253;DHT22;15515;45.588;5.276;2022-10-31T13:32:04;25.60;76.20
28253;DHT22;15515;45.588;5.276;2022-10-31T13:37:39;25.60;74.30
28253;DHT22;15515;45.588;5.276;2022-10-31T13:45:54;24.20;77.80
28253;DHT22;15515;45.588;5.276;2022-10-31T13:50:59;23.80;78.50
28253;DHT22;15515;45.588;5.276;2022-10-31T13:58:36;23.30;79.70
28253;DHT22;15515;45.588;5.276;2022-10-31T14:01:15;23.20;78.60
28253;DHT22;15515;45.588;5.276;2022-10-31T14:03:45;23.10;79.90
28253;DHT22;15515;45.588;5.276;2022-10-31T14:09:19;23.00;80.00
28253;DHT22;15515;45.588;5.276;2022-10-31T14:11:48;22.90;79.70
28253;DHT22;15515;45.588;5.276;2022-10-31T14:14:17;22.80;80.50
28253;DHT22;15515;45.588;5.276;2022-10-31T14:16:45;22.70;78.30
28253;DHT22;15515;45.588;5.276;2022-10-31T14:19:19;22.70;78.40
28253;DHT22;15515;45.588;5.276;2022-10-31T14:21:48;22.70;77.30
28253;DHT22;15515;45.588;5.276;2022-10-31T14:27:03;22.60;77.30
28253;DHT22;15515;45.588;5.276;2022-10-31T14:29:32;22.60;77.10
28253;DHT22;15515;45.588;5.276;2022-10-31T14:37:51;22.50;77.30
28253;DHT22;15515;45.588;5.276;2022-10-31T14:40:51;22.50;77.80
28253;DHT22;15515;45.588;5.276;2022-10-31T14:43:46;22.50;78.00
28253;DHT22;15515;45.588;5.276;2022-10-31T14:51:47;22.40;78.10
28253;DHT22;15515;45.588;5.276;2022-10-31T14:54:19;22.40;77.40
28253;DHT22;15515;45.588;5.276;2022-10-31T14:56:53;22.40;77.10
28253;DHT22;15515;45.588;5.276;2022-10-31T14:59:28;22.40;76.60
28253;DHT22;15515;45.588;5.276;2022-10-31T15:02:02;22.40;77.40
28253;DHT22;15515;45.588;5.276;2022-10-31T15:04:34;22.40;77.30
28253;DHT22;15515;45.588;5.276;2022-10-31T15:09:35;22.40;77.10
28253;DHT22;15515;45.588;5.276;2022-10-31T15:12:25;22.30;77.00
28253;DHT22;15515;45.588;5.276;2022-10-31T15:14:52;22.40;77.30
28253;DHT22;15515;45.588;5.276;2022-10-31T15:17:20;22.40;76.90
28253;DHT22;15515;45.588;5.276;2022-10-31T15:19:47;22.30;76.80
28253;DHT22;15515;45.588;5.276;2022-10-31T15:22:16;22.30;77.70
28253;DHT22;15515;45.588;5.276;2022-10-31T15:24:44;22.20;77.70
28253;DHT22;15515;45.588;5.276;2022-10-31T15:27:17;22.30;78.10
28253;DHT22;15515;45.588;5.276;2022-10-31T15:29:52;22.20;78.40
28253;DHT22;15515;45.588;5.276;2022-10-31T15:32:27;22.10;78.70
28253;DHT22;15515;45.588;5.276;2022-10-31T15:34:55;22.10;79.10
28253;DHT22;15515;45.588;5.276;2022-10-31T15:37:25;22.00;79.60
28253;DHT22;15515;45.588;5.276;2022-10-31T15:39:52;22.00;80.00
28253;DHT22;15515;45.588;5.276;2022-10-31T15:42:29;22.00;80.40
28253;DHT22;15515;45.588;5.276;2022-10-31T15:45:16;22.00;80.70
28253;DHT22;15515;45.588;5.276;2022-10-31T15:47:57;22.00;81.00
28253;DHT22;15515;45.588;5.276;2022-10-31T15:50:53;21.90;81.30
28253;DHT22;15515;45.588;5.276;2022-10-31T15:55:55;21.90;81.20
28253;DHT22;15515;45.588;5.276;2022-10-31T15:58:24;21.80;81.60
28253;DHT22;15515;45.588;5.276;2022-10-31T16:01:06;21.80;81.90
28253;DHT22;15515;45.588;5.276;2022-10-31T16:03:54;21.80;82.00
28253;DHT22;15515;45.588;5.276;2022-10-31T16:06:23;21.80;81.80
28253;DHT22;15515;45.588;5.276;2022-10-31T16:08:50;21.70;82.40
28253;DHT22;15515;45.588;5.276;2022-10-31T16:11:21;21.70;82.00
28253;DHT22;15515;45.588;5.276;2022-10-31T16:16:45;21.60;83.70
28253;DHT22;15515;45.588;5.276;2022-10-31T16:19:43;21.50;82.90
28253;DHT22;15515;45.588;5.276;2022-10-31T16:22:13;21.50;83.30
28253;DHT22;15515;45.588;5.276;2022-10-31T16:24:46;21.50;84.00
28253;DHT22;15515;45.588;5.276;2022-10-31T16:27:22;21.50;83.90
28253;DHT22;15515;45.588;5.276;2022-10-31T16:29:52;21.40;84.30
28253;DHT22;15515;45.588;5.276;2022-10-31T16:32:52;21.40;84.70
28253;DHT22;15515;45.588;5.276;2022-10-31T16:35:26;21.40;84.20
28253;DHT22;15515;45.588;5.276;2022-10-31T16:37:54;21.40;84.20
28253;DHT22;15515;45.588;5.276;2022-10-31T16:40:21;21.40;84.70
28253;DHT22;15515;45.588;5.276;2022-10-31T16:42:48;21.30;84.00
28253;DHT22;15515;45.588;5.276;2022-10-31T16:45:21;21.30;84.10
28253;DHT22;15515;45.588;5.276;2022-10-31T16:47:49;21.30;84.60
28253;DHT22;15515;45.588;5.276;2022-10-31T16:50:25;21.30;83.50
28253;DHT22;15515;45.588;5.276;2022-10-31T16:52:53;21.20;83.60
28253;DHT22;15515;45.588;5.276;2022-10-31T16:55:34;21.30;84.70
28253;DHT22;15515;45.588;5.276;2022-10-31T17:00:38;21.20;87.20
28253;DHT22;15515;45.588;5.276;2022-10-31T17:03:05;21.10;88.00
28253;DHT22;15515;45.588;5.276;2022-10-31T17:05:32;21.00;88.50
28253;DHT22;15515;45.588;5.276;2022-10-31T17:07:59;21.00;88.70
28253;DHT22;15515;45.588;5.276;2022-10-31T17:10:26;20.90;87.50
28253;DHT22;15515;45.588;5.276;2022-10-31T17:12:53;20.90;86.70
28253;DHT22;15515;45.588;5.276;2022-10-31T17:15:26;20.80;86.50
28253;DHT22;15515;45.588;5.276;2022-10-31T17:17:54;20.80;85.80
28253;DHT22;15515;45.588;5.276;2022-10-31T17:22:49;20.90;85.70
28253;DHT22;15515;45.588;5.276;2022-10-31T17:25:19;20.80;85.70
28253;DHT22;15515;45.588;5.276;2022-10-31T17:27:47;20.80;86.00
28253;DHT22;15515;45.588;5.276;2022-10-31T17:30:15;20.80;86.00
28253;DHT22;15515;45.588;5.276;2022-10-31T17:32:45;20.80;86.10
28253;DHT22;15515;45.588;5.276;2022-10-31T17:35:13;20.80;86.40
28253;DHT22;15515;45.588;5.276;2022-10-31T17:37:42;20.80;86.50
28253;DHT22;15515;45.588;5.276;2022-10-31T17:40:10;20.80;86.80
28253;DHT22;15515;45.588;5.276;2022-10-31T17:42:38;20.80;87.10
28253;DHT22;15515;45.588;5.276;2022-10-31T17:45:06;20.70;87.20
28253;DHT22;15515;45.588;5.276;2022-10-31T17:47:34;20.70;87.40
28253;DHT22;15515;45.588;5.276;2022-10-31T17:50:01;20.70;87.40
28253;DHT22;15515;45.588;5.276;2022-10-31T17:52:28;20.70;87.40
28253;DHT22;15515;45.588;5.276;2022-10-31T17:54:55;20.70;87.80
28253;DHT22;15515;45.588;5.276;2022-10-31T17:57:22;20.70;87.80
28253;DHT22;15515;45.588;5.276;2022-10-31T17:59:49;20.70;87.90
28253;DHT22;15515;45.588;5.276;2022-10-31T18:02:16;20.70;87.70
28253;DHT22;15515;45.588;5.276;2022-10-31T18:04:43;20.70;87.60
28253;DHT22;15515;45.588;5.276;2022-10-31T18:07:10;20.70;87.80
28253;DHT22;15515;45.588;5.276;2022-10-31T18:09:37;20.70;87.80
28253;DHT22;15515;45.588;5.276;2022-10-31T18:12:04;20.70;87.90
28253;DHT22;15515;45.588;5.276;2022-10-31T18:14:31;20.70;87.90
28253;DHT22;15515;45.588;5.276;2022-10-31T18:16:58;20.60;87.90
28253;DHT22;15515;45.588;5.276;2022-10-31T18:19:25;20.70;88.00
28253;DHT22;15515;45.588;5.276;2022-10-31T18:21:52;20.70;87.80
28253;DHT22;15515;45.588;5.276;2022-10-31T18:24:19;20.70;88.20
28253;DHT22;15515;45.588;5.276;2022-10-31T18:26:46;20.70;88.60
28253;DHT22;15515;45.588;5.276;2022-10-31T18:29:14;20.70;89.10
28253;DHT22;15515;45.588;5.276;2022-10-31T18:31:42;20.70;89.50
28253;DHT22;15515;45.588;5.276;2022-10-31T18:34:09;20.60;89.90
28253;DHT22;15515;45.588;5.276;2022-10-31T18:36:36;20.60;90.10
28253;DHT22;15515;45.588;5.276;2022-10-31T18:39:03;20.60;90.40
28253;DHT22;15515;45.588;5.276;2022-10-31T18:41:30;20.50;90.50
28253;DHT22;15515;45.588;5.276;2022-10-31T18:43:57;20.50;91.10
28253;DHT22;15515;45.588;5.276;2022-10-31T18:46:26;20.40;91.00